AEE828 LGAV-LGKR
Flight info
| Callsign | AEE828 |
|---|---|
| Flight time | 0h 40m |
| Altitude | 32000 |
| Route | KOR UL53 PARNA |
| Aircraft | A320/M-SDE3FGHIRWY/LB1 |
Departure
| Time | 2026-05-05 11:37 |
|---|---|
| Airport | Athens Eleftherios Venizelos International Airport (LGAV) |
Arrival
| Time | 2026-05-05 12:17 |
|---|---|
| Airport | Corfu Ioannis Kapodistrias International Airport (LGKR) |
| Time | Latitude | Longitude | Altitude | Speed | Heading |
|---|---|---|---|---|---|
| 2026-05-05 11:37 | 38.06414 | 23.85145 | 11040 ft | 347 kts | 272° |
| 2026-05-05 11:37 | 38.06418 | 23.82038 | 11683 ft | 355 kts | 272° |
| 2026-05-05 11:37 | 38.06421 | 23.78890 | 12410 ft | 359 kts | 272° |
| 2026-05-05 11:37 | 38.06426 | 23.75709 | 13179 ft | 362 kts | 272° |
| 2026-05-05 11:38 | 38.06432 | 23.72483 | 13949 ft | 366 kts | 272° |
| 2026-05-05 11:38 | 38.06437 | 23.69250 | 14633 ft | 368 kts | 272° |
| 2026-05-05 11:38 | 38.06440 | 23.65984 | 15297 ft | 371 kts | 273° |
| 2026-05-05 11:38 | 38.06442 | 23.62700 | 15958 ft | 374 kts | 273° |
| 2026-05-05 11:39 | 38.06445 | 23.59388 | 16613 ft | 377 kts | 273° |
| 2026-05-05 11:39 | 38.06448 | 23.56051 | 17287 ft | 380 kts | 273° |
| 2026-05-05 11:39 | 38.06448 | 23.52681 | 17963 ft | 383 kts | 274° |
| 2026-05-05 11:39 | 38.06447 | 23.49287 | 18614 ft | 386 kts | 274° |
| 2026-05-05 11:40 | 38.06447 | 23.47023 | 19023 ft | 389 kts | 274° |
| 2026-05-05 11:40 | 38.06447 | 23.43581 | 19651 ft | 391 kts | 274° |
| 2026-05-05 11:40 | 38.06442 | 23.38985 | 20459 ft | 395 kts | 274° |
| 2026-05-05 11:40 | 38.06436 | 23.35483 | 21056 ft | 397 kts | 274° |
| 2026-05-05 11:41 | 38.06429 | 23.31967 | 21606 ft | 400 kts | 274° |
| 2026-05-05 11:41 | 38.06424 | 23.29580 | 21979 ft | 401 kts | 274° |
| 2026-05-05 11:41 | 38.06415 | 23.26073 | 22491 ft | 404 kts | 274° |
| 2026-05-05 11:41 | 38.06406 | 23.22498 | 23010 ft | 406 kts | 274° |
| 2026-05-05 11:42 | 38.06394 | 23.18909 | 23521 ft | 408 kts | 274° |
| 2026-05-05 11:42 | 38.06383 | 23.15294 | 23952 ft | 411 kts | 275° |
| 2026-05-05 11:42 | 38.06374 | 23.11658 | 24369 ft | 413 kts | 275° |
| 2026-05-05 11:42 | 38.06363 | 23.08005 | 24771 ft | 415 kts | 275° |
| 2026-05-05 11:43 | 38.06350 | 23.04333 | 25159 ft | 417 kts | 275° |
| 2026-05-05 11:43 | 38.06333 | 23.00646 | 25552 ft | 419 kts | 275° |
| 2026-05-05 11:43 | 38.06313 | 22.96945 | 25960 ft | 421 kts | 275° |
| 2026-05-05 11:43 | 38.06293 | 22.93231 | 26370 ft | 422 kts | 275° |
| 2026-05-05 11:44 | 38.06271 | 22.89496 | 26768 ft | 424 kts | 275° |
| 2026-05-05 11:44 | 38.06246 | 22.85747 | 27156 ft | 426 kts | 275° |
| 2026-05-05 11:44 | 38.06220 | 22.81980 | 27532 ft | 427 kts | 275° |
| 2026-05-05 11:44 | 38.06196 | 22.78206 | 27898 ft | 429 kts | 275° |
| 2026-05-05 11:45 | 38.06274 | 22.74431 | 28267 ft | 426 kts | 281° |
| 2026-05-05 11:45 | 38.06816 | 22.70760 | 28606 ft | 421 kts | 290° |
| 2026-05-05 11:45 | 38.07821 | 22.67291 | 28951 ft | 417 kts | 299° |
| 2026-05-05 11:45 | 38.09245 | 22.64120 | 29436 ft | 411 kts | 307° |
| 2026-05-05 11:46 | 38.10874 | 22.61155 | 29958 ft | 408 kts | 308° |
| 2026-05-05 11:46 | 38.12490 | 22.58202 | 30449 ft | 406 kts | 308° |
| 2026-05-05 11:46 | 38.14094 | 22.55259 | 30885 ft | 404 kts | 307° |
| 2026-05-05 11:46 | 38.15688 | 22.52327 | 31302 ft | 403 kts | 307° |
| 2026-05-05 11:47 | 38.17281 | 22.49403 | 31717 ft | 402 kts | 307° |
| 2026-05-05 11:47 | 38.18874 | 22.46479 | 32038 ft | 402 kts | 307° |
| 2026-05-05 11:47 | 38.20468 | 22.43560 | 32111 ft | 403 kts | 307° |
| 2026-05-05 11:48 | 38.25258 | 22.34756 | 32118 ft | 403 kts | 307° |
| 2026-05-05 11:48 | 38.28444 | 22.28886 | 32118 ft | 403 kts | 307° |
| 2026-05-05 11:49 | 38.31625 | 22.23006 | 32124 ft | 403 kts | 307° |
| 2026-05-05 11:49 | 38.34802 | 22.17126 | 32123 ft | 403 kts | 307° |
| 2026-05-05 11:50 | 38.37978 | 22.11243 | 32126 ft | 403 kts | 307° |
| 2026-05-05 11:50 | 38.41146 | 22.05353 | 32124 ft | 403 kts | 307° |
| 2026-05-05 11:51 | 38.44304 | 21.99463 | 32121 ft | 402 kts | 307° |
| 2026-05-05 11:51 | 38.47459 | 21.93579 | 32126 ft | 402 kts | 307° |
| 2026-05-05 11:52 | 38.50606 | 21.87691 | 32123 ft | 401 kts | 306° |
| 2026-05-05 11:52 | 38.53751 | 21.81793 | 32117 ft | 402 kts | 307° |
| 2026-05-05 11:53 | 38.56903 | 21.75891 | 32117 ft | 402 kts | 307° |
| 2026-05-05 11:53 | 38.60054 | 21.69975 | 32121 ft | 403 kts | 306° |
| 2026-05-05 11:54 | 38.63206 | 21.64048 | 32124 ft | 403 kts | 307° |
| 2026-05-05 11:54 | 38.66332 | 21.58151 | 32124 ft | 403 kts | 306° |
| 2026-05-05 11:55 | 38.69474 | 21.52206 | 32128 ft | 403 kts | 306° |
| 2026-05-05 11:55 | 38.72611 | 21.46264 | 32133 ft | 403 kts | 306° |
| 2026-05-05 11:56 | 38.75747 | 21.40324 | 32133 ft | 402 kts | 306° |
| 2026-05-05 11:56 | 38.77304 | 21.37373 | 31629 ft | 399 kts | 306° |
| 2026-05-05 11:56 | 38.78863 | 21.34415 | 30705 ft | 401 kts | 307° |
| 2026-05-05 11:57 | 38.80431 | 21.31439 | 29687 ft | 405 kts | 307° |
| 2026-05-05 11:57 | 38.82013 | 21.28429 | 28533 ft | 408 kts | 307° |
| 2026-05-05 11:57 | 38.83609 | 21.25389 | 27321 ft | 414 kts | 306° |
| 2026-05-05 11:57 | 38.85226 | 21.22295 | 26194 ft | 420 kts | 306° |
| 2026-05-05 11:58 | 38.86853 | 21.19179 | 25579 ft | 422 kts | 306° |
| 2026-05-05 11:58 | 38.88487 | 21.16054 | 24983 ft | 421 kts | 306° |
| 2026-05-05 11:58 | 38.90122 | 21.12923 | 24397 ft | 420 kts | 306° |
| 2026-05-05 11:58 | 38.91745 | 21.09816 | 23827 ft | 419 kts | 306° |
| 2026-05-05 11:59 | 38.93369 | 21.06708 | 23163 ft | 417 kts | 306° |
| 2026-05-05 11:59 | 38.94978 | 21.03626 | 22499 ft | 414 kts | 306° |
| 2026-05-05 11:59 | 38.96558 | 21.00591 | 21857 ft | 412 kts | 306° |
| 2026-05-05 11:59 | 38.98140 | 20.97539 | 21220 ft | 409 kts | 305° |
| 2026-05-05 12:00 | 38.99710 | 20.94503 | 20594 ft | 407 kts | 305° |
| 2026-05-05 12:00 | 39.01274 | 20.91483 | 19984 ft | 405 kts | 305° |
| 2026-05-05 12:00 | 39.02829 | 20.88481 | 19383 ft | 403 kts | 305° |
| 2026-05-05 12:00 | 39.04381 | 20.85489 | 18803 ft | 401 kts | 305° |
| 2026-05-05 12:01 | 39.05924 | 20.82515 | 18188 ft | 399 kts | 305° |
| 2026-05-05 12:01 | 39.07453 | 20.79561 | 17517 ft | 396 kts | 305° |
| 2026-05-05 12:01 | 39.08979 | 20.76608 | 16865 ft | 394 kts | 305° |
| 2026-05-05 12:01 | 39.10492 | 20.73676 | 16237 ft | 391 kts | 305° |
| 2026-05-05 12:02 | 39.11993 | 20.70766 | 15616 ft | 389 kts | 305° |
| 2026-05-05 12:02 | 39.13482 | 20.67872 | 15000 ft | 386 kts | 305° |
| 2026-05-05 12:02 | 39.14962 | 20.64991 | 14403 ft | 384 kts | 305° |
| 2026-05-05 12:02 | 39.16434 | 20.62127 | 13788 ft | 382 kts | 306° |
| 2026-05-05 12:03 | 39.17900 | 20.59274 | 13126 ft | 380 kts | 305° |
| 2026-05-05 12:03 | 39.19355 | 20.56442 | 12482 ft | 378 kts | 305° |
| 2026-05-05 12:03 | 39.20805 | 20.53617 | 11833 ft | 375 kts | 305° |
| 2026-05-05 12:03 | 39.22236 | 20.50823 | 11152 ft | 373 kts | 305° |
| 2026-05-05 12:04 | 39.23629 | 20.48090 | 10963 ft | 353 kts | 304° |
| 2026-05-05 12:04 | 39.24919 | 20.45560 | 10809 ft | 323 kts | 305° |
| 2026-05-05 12:04 | 39.26103 | 20.43240 | 10641 ft | 299 kts | 305° |
| 2026-05-05 12:04 | 39.27229 | 20.41041 | 10166 ft | 290 kts | 305° |
| 2026-05-05 12:05 | 39.28334 | 20.38878 | 9524 ft | 288 kts | 305° |
| 2026-05-05 12:05 | 39.29433 | 20.36727 | 8966 ft | 285 kts | 305° |
| 2026-05-05 12:05 | 39.30529 | 20.34586 | 8560 ft | 285 kts | 304° |
| 2026-05-05 12:05 | 39.31615 | 20.32462 | 8286 ft | 283 kts | 304° |
| 2026-05-05 12:06 | 39.32693 | 20.30346 | 8000 ft | 281 kts | 304° |
| 2026-05-05 12:06 | 39.33764 | 20.28239 | 7691 ft | 280 kts | 304° |
| 2026-05-05 12:06 | 39.34828 | 20.26147 | 7369 ft | 278 kts | 303° |
| 2026-05-05 12:06 | 39.35885 | 20.24067 | 7051 ft | 276 kts | 303° |
| 2026-05-05 12:07 | 39.36936 | 20.21998 | 6741 ft | 275 kts | 303° |
| 2026-05-05 12:07 | 39.37960 | 20.19978 | 6601 ft | 260 kts | 303° |
| 2026-05-05 12:07 | 39.38839 | 20.18244 | 6431 ft | 245 kts | 303° |
| 2026-05-05 12:07 | 39.39404 | 20.17133 | 6156 ft | 241 kts | 303° |
| 2026-05-05 12:08 | 39.40280 | 20.15405 | 5687 ft | 238 kts | 302° |
| 2026-05-05 12:08 | 39.41118 | 20.13574 | 5210 ft | 235 kts | 297° |
| 2026-05-05 12:08 | 39.41864 | 20.11703 | 4682 ft | 233 kts | 303° |
| 2026-05-05 12:08 | 39.43034 | 20.10328 | 4177 ft | 232 kts | 329° |
| 2026-05-05 12:09 | 39.44472 | 20.09388 | 3627 ft | 232 kts | 332° |
| 2026-05-05 12:09 | 39.45888 | 20.08411 | 3142 ft | 229 kts | 330° |
| 2026-05-05 12:09 | 39.47272 | 20.07424 | 3001 ft | 228 kts | 330° |
| 2026-05-05 12:09 | 39.48669 | 20.06422 | 3006 ft | 231 kts | 330° |
| 2026-05-05 12:10 | 39.50076 | 20.05411 | 3011 ft | 232 kts | 330° |
| 2026-05-05 12:10 | 39.51491 | 20.04396 | 3009 ft | 232 kts | 330° |
| 2026-05-05 12:10 | 39.52899 | 20.03386 | 3010 ft | 231 kts | 330° |
| 2026-05-05 12:10 | 39.54305 | 20.02375 | 3011 ft | 231 kts | 330° |
| 2026-05-05 12:11 | 39.55713 | 20.01362 | 3009 ft | 231 kts | 330° |
| 2026-05-05 12:11 | 39.57118 | 20.00346 | 3010 ft | 231 kts | 330° |
| 2026-05-05 12:11 | 39.58523 | 19.99328 | 3003 ft | 230 kts | 330° |
| 2026-05-05 12:11 | 39.59887 | 19.98345 | 2901 ft | 220 kts | 330° |
| 2026-05-05 12:12 | 39.61196 | 19.97403 | 2777 ft | 210 kts | 330° |
| 2026-05-05 12:12 | 39.62469 | 19.96554 | 2649 ft | 202 kts | 334° |
| 2026-05-05 12:12 | 39.63709 | 19.95824 | 2484 ft | 189 kts | 335° |
| 2026-05-05 12:12 | 39.64859 | 19.95170 | 2327 ft | 172 kts | 335° |
| 2026-05-05 12:13 | 39.65910 | 19.94587 | 2156 ft | 157 kts | 335° |
| 2026-05-05 12:13 | 39.66888 | 19.94053 | 1812 ft | 151 kts | 335° |
| 2026-05-05 12:13 | 39.67854 | 19.93525 | 1512 ft | 149 kts | 335° |
| 2026-05-05 12:13 | 39.68823 | 19.92991 | 1553 ft | 152 kts | 332° |
| 2026-05-05 12:14 | 39.69670 | 19.92203 | 1525 ft | 149 kts | 307° |
| 2026-05-05 12:14 | 39.70038 | 19.90982 | 1559 ft | 147 kts | 269° |
| 2026-05-05 12:14 | 39.69729 | 19.89767 | 1562 ft | 143 kts | 228° |
| 2026-05-05 12:14 | 39.68875 | 19.89153 | 1504 ft | 144 kts | 190° |
| 2026-05-05 12:15 | 39.67880 | 19.89266 | 1362 ft | 145 kts | 168° |
| 2026-05-05 12:15 | 39.66933 | 19.89588 | 1265 ft | 137 kts | 169° |
| 2026-05-05 12:15 | 39.66014 | 19.89794 | 1188 ft | 133 kts | 171° |
| 2026-05-05 12:15 | 39.65096 | 19.89976 | 1034 ft | 134 kts | 172° |
| 2026-05-05 12:16 | 39.64192 | 19.90185 | 826 ft | 131 kts | 168° |
| 2026-05-05 12:16 | 39.63302 | 19.90419 | 576 ft | 131 kts | 166° |
| 2026-05-05 12:16 | 39.62412 | 19.90647 | 364 ft | 131 kts | 166° |
| 2026-05-05 12:16 | 39.61526 | 19.90876 | 148 ft | 130 kts | 166° |
| 2026-05-05 12:17 | 39.60662 | 19.91094 | 22 ft | 116 kts | 167° |
| 2026-05-05 12:17 | 39.60144 | 19.91234 | 22 ft | 32 kts | 169° |
| 2026-05-05 12:17 | 39.60031 | 19.91274 | 23 ft | 7 kts | 168° |
| 2026-05-05 12:17 | 39.60035 | 19.91246 | 21 ft | 6 kts | 328° |
| 2026-05-05 12:18 | 39.60126 | 19.91221 | 23 ft | 18 kts | 350° |
| 2026-05-05 12:18 | 39.60284 | 19.91187 | 21 ft | 27 kts | 349° |
| 2026-05-05 12:18 | 39.60482 | 19.91155 | 19 ft | 30 kts | 6° |
| 2026-05-05 12:18 | 39.60596 | 19.91216 | 19 ft | 11 kts | 36° |
| 2026-05-05 12:19 | 39.60669 | 19.91228 | 18 ft | 12 kts | 344° |
| 2026-05-05 12:19 | 39.60704 | 19.91216 | 18 ft | 2 kts | 346° |
| 2026-05-05 12:19 | 39.60728 | 19.91208 | 18 ft | 5 kts | 346° |
| 2026-05-05 12:19 | 39.60747 | 19.91235 | 20 ft | 6 kts | 71° |
| 2026-05-05 12:20 | 39.60755 | 19.91296 | 20 ft | 4 kts | 79° |
| 2026-05-05 12:20 | 39.60758 | 19.91314 | 20 ft | 2 kts | 79° |
| 2026-05-05 12:20 | 39.60759 | 19.91324 | 18 ft | 1 kts | 79° |
| 2026-05-05 12:20 | 39.60761 | 19.91340 | 18 ft | 0 kts | 79° |
| 2026-05-05 12:23 | 39.60759 | 19.91319 | 18 ft | 0 kts | 80° |